createdAt,value
2019-05-13T00:00:54.459Z,0.90
2019-05-13T00:03:21.040Z,0.70
2019-05-13T00:05:50.034Z,0.63
2019-05-13T00:08:21.650Z,0.80
2019-05-13T00:10:46.996Z,0.80
2019-05-13T00:13:14.774Z,0.70
2019-05-13T00:15:44.454Z,0.70
2019-05-13T00:18:11.309Z,0.70
2019-05-13T00:20:37.929Z,0.90
2019-05-13T00:23:06.206Z,0.77
2019-05-13T00:25:33.864Z,0.70
2019-05-13T00:28:00.719Z,0.70
2019-05-13T00:30:28.182Z,0.90
2019-05-13T00:32:54.769Z,0.73
2019-05-13T00:35:23.313Z,0.50
2019-05-13T00:37:54.295Z,0.90
2019-05-13T00:40:20.967Z,0.90
2019-05-13T00:42:47.549Z,0.90
2019-05-13T00:47:53.950Z,0.83
2019-05-13T00:50:20.547Z,0.80
2019-05-13T00:52:47.425Z,1.20
2019-05-13T00:55:15.069Z,0.93
2019-05-13T00:57:43.627Z,0.80
2019-05-13T01:00:10.768Z,1.07
2019-05-13T01:02:39.881Z,1.00
2019-05-13T01:05:06.732Z,1.00
2019-05-13T01:07:34.157Z,0.90
2019-05-13T01:10:04.293Z,0.90
2019-05-13T01:12:31.062Z,1.03
2019-05-13T01:14:57.681Z,1.00
2019-05-13T01:17:24.884Z,1.10
2019-05-13T01:19:53.784Z,1.00
2019-05-13T01:22:20.435Z,1.03
2019-05-13T01:24:48.911Z,1.00
2019-05-13T01:27:15.766Z,1.00
2019-05-13T01:29:43.486Z,0.90
2019-05-13T01:32:14.685Z,1.17
2019-05-13T01:34:41.272Z,1.17
2019-05-13T01:37:08.129Z,1.10
2019-05-13T01:39:36.914Z,0.90
2019-05-13T01:42:04.241Z,1.35
2019-05-13T01:44:32.964Z,1.30
2019-05-13T01:46:59.924Z,1.20
2019-05-13T01:49:26.709Z,1.10
2019-05-13T01:51:54.129Z,1.10
2019-05-13T01:56:54.041Z,1.10
2019-05-13T01:59:20.945Z,1.10
2019-05-13T02:01:48.408Z,1.15
2019-05-13T02:04:14.976Z,1.20
2019-05-13T02:06:44.106Z,1.30
2019-05-13T02:09:10.722Z,1.50
2019-05-13T02:11:37.310Z,1.32
2019-05-13T02:14:05.729Z,1.50
2019-05-13T02:16:33.916Z,1.20
2019-05-13T02:19:00.722Z,1.37
2019-05-13T02:21:27.308Z,1.50
2019-05-13T02:23:54.856Z,1.40
2019-05-13T02:26:23.872Z,1.30
2019-05-13T02:28:50.049Z,1.63
2019-05-13T02:31:26.929Z,1.70
2019-05-13T02:33:46.545Z,1.60
2019-05-13T02:36:13.690Z,1.30
2019-05-13T02:38:42.921Z,1.30
2019-05-13T02:41:13.136Z,2.07
2019-05-13T02:43:41.361Z,1.45
2019-05-13T02:46:08.590Z,1.70
2019-05-13T02:48:35.169Z,1.13
2019-05-13T02:51:03.784Z,1.33
2019-05-13T02:53:34.869Z,1.50
2019-05-13T02:56:03.048Z,1.47
2019-05-13T02:58:32.950Z,1.70
2019-05-13T03:00:58.614Z,1.70
2019-05-13T03:03:25.382Z,1.40
2019-05-13T03:05:52.978Z,1.33
2019-05-13T03:08:35.229Z,1.60
2019-05-13T03:10:48.937Z,1.43
2019-05-13T03:13:15.510Z,1.40
2019-05-13T03:15:42.998Z,1.60
2019-05-13T03:18:13.043Z,1.80
2019-05-13T03:20:38.031Z,1.20
2019-05-13T03:23:05.368Z,1.30
2019-05-13T03:25:33.075Z,1.40
2019-05-13T03:28:03.228Z,1.30
2019-05-13T03:30:35.229Z,1.40
2019-05-13T03:33:09.060Z,1.50
2019-05-13T03:35:28.939Z,1.30
2019-05-13T03:37:57.274Z,1.40
2019-05-13T03:43:12.849Z,1.57
2019-05-13T03:45:38.974Z,1.50
2019-05-13T03:48:05.872Z,1.37
2019-05-13T03:50:34.935Z,1.40
2019-05-13T03:53:03.058Z,1.40
2019-05-13T03:55:32.855Z,1.27
2019-05-13T03:58:02.646Z,1.47
2019-05-13T04:03:14.266Z,1.60
2019-05-13T04:05:43.613Z,1.40
2019-05-13T04:08:09.459Z,1.32
2019-05-13T04:10:37.862Z,1.23
2019-05-13T04:13:04.667Z,1.70
2019-05-13T04:15:32.050Z,1.30
2019-05-13T04:18:02.714Z,1.20
2019-05-13T04:20:28.116Z,1.40
2019-05-13T04:22:54.691Z,1.40
2019-05-13T04:25:23.741Z,1.57
2019-05-13T04:27:52.417Z,1.20
2019-05-13T04:30:22.102Z,1.37
2019-05-13T04:32:53.461Z,1.50
2019-05-13T04:35:18.688Z,1.50
2019-05-13T04:37:45.546Z,1.20
2019-05-13T04:40:16.889Z,1.50
2019-05-13T04:42:44.081Z,1.50
2019-05-13T04:45:13.372Z,1.30
2019-05-13T04:47:39.178Z,1.40
2019-05-13T04:50:05.778Z,1.40
2019-05-13T04:52:33.228Z,1.50
2019-05-13T04:55:03.688Z,1.30
2019-05-13T04:57:33.147Z,1.40
2019-05-13T05:00:03.613Z,1.40
2019-05-13T05:02:39.990Z,1.53
2019-05-13T05:04:56.578Z,1.60
2019-05-13T05:07:23.659Z,1.50
2019-05-13T05:10:16.912Z,1.20
2019-05-13T05:12:22.894Z,1.47
2019-05-13T05:14:47.401Z,1.40
2019-05-13T05:17:14.245Z,1.77
2019-05-13T05:19:43.616Z,1.73
2019-05-13T05:22:09.218Z,1.50
2019-05-13T05:24:35.927Z,1.73
2019-05-13T05:27:02.505Z,1.87
2019-05-13T05:29:29.187Z,1.53
2019-05-13T05:31:56.016Z,1.90
2019-05-13T05:34:23.982Z,1.70
2019-05-13T05:36:52.634Z,1.97
2019-05-13T05:39:19.269Z,1.60
2019-05-13T05:41:45.837Z,1.60
2019-05-13T05:44:13.478Z,1.50
2019-05-13T05:46:42.879Z,1.50
2019-05-13T05:49:12.549Z,1.80
2019-05-13T05:51:38.288Z,1.60
2019-05-13T05:54:05.526Z,1.60
2019-05-13T05:56:33.128Z,1.73
2019-05-13T05:59:02.763Z,1.60
2019-05-13T06:01:28.665Z,1.67
2019-05-13T06:03:55.255Z,1.57
2019-05-13T06:06:22.962Z,1.73
2019-05-13T06:08:51.630Z,1.53
2019-05-13T06:11:18.224Z,2.00
2019-05-13T06:13:44.857Z,1.70
2019-05-13T06:16:12.309Z,1.90
2019-05-13T06:18:41.407Z,1.90
2019-05-13T06:21:07.271Z,1.70
2019-05-13T06:23:34.232Z,1.60
2019-05-13T06:26:01.919Z,1.90
2019-05-13T06:28:32.076Z,1.60
2019-05-13T06:30:58.001Z,1.70
2019-05-13T06:33:24.655Z,1.77
2019-05-13T06:35:52.174Z,1.37
2019-05-13T06:38:19.371Z,1.63
2019-05-13T06:40:59.513Z,1.77
2019-05-13T06:43:16.127Z,1.67
2019-05-13T06:45:44.688Z,1.70
2019-05-13T06:48:14.538Z,1.27
2019-05-13T06:50:43.280Z,1.60
2019-05-13T06:53:12.652Z,1.43
2019-05-13T06:55:41.977Z,1.80
2019-05-13T06:58:11.266Z,2.07
2019-05-13T07:00:37.736Z,1.40
2019-05-13T07:03:07.221Z,1.53
2019-05-13T07:05:34.195Z,1.50
2019-05-13T07:08:02.081Z,1.40
2019-05-13T07:10:32.174Z,1.50
2019-05-13T07:12:59.329Z,1.70
2019-05-13T07:15:27.702Z,1.80
2019-05-13T07:17:55.046Z,1.47
2019-05-13T07:20:22.699Z,1.70
2019-05-13T07:22:53.470Z,1.60
2019-05-13T07:25:22.202Z,1.70
2019-05-13T07:27:51.389Z,1.70
2019-05-13T07:30:23.677Z,1.45
2019-05-13T07:32:53.272Z,1.67
2019-05-13T07:35:22.654Z,1.50
2019-05-13T07:37:48.983Z,1.63
2019-05-13T07:40:18.307Z,2.00
2019-05-13T07:42:49.147Z,1.50
2019-05-13T07:45:21.189Z,1.93
2019-05-13T07:47:47.766Z,1.63
2019-05-13T07:50:14.642Z,1.70
2019-05-13T07:52:42.322Z,1.43
2019-05-13T07:55:11.944Z,1.90
2019-05-13T07:57:38.004Z,1.60
2019-05-13T08:00:07.361Z,1.57
2019-05-13T08:02:34.411Z,1.80
2019-05-13T08:05:02.351Z,1.47
2019-05-13T08:07:31.532Z,2.07
2019-05-13T08:10:00.927Z,1.53
2019-05-13T08:12:27.022Z,2.00
2019-05-13T08:14:53.742Z,1.90
2019-05-13T08:17:22.475Z,1.30
2019-05-13T08:19:52.038Z,1.60
2019-05-13T08:22:18.683Z,1.50
2019-05-13T08:24:45.321Z,1.53
2019-05-13T08:27:13.463Z,1.67
2019-05-13T08:29:44.516Z,1.60
2019-05-13T08:32:11.347Z,1.63
2019-05-13T08:34:38.550Z,1.43
2019-05-13T08:37:11.293Z,1.67
2019-05-13T08:39:38.287Z,1.50
2019-05-13T08:42:15.541Z,1.60
2019-05-13T08:44:33.687Z,1.62
2019-05-13T08:49:32.578Z,2.00
2019-05-13T08:52:03.768Z,1.50
2019-05-13T08:54:34.042Z,1.73
2019-05-13T08:57:04.193Z,1.67
2019-05-13T08:59:33.126Z,1.70
2019-05-13T09:02:02.926Z,2.10
2019-05-13T09:04:32.043Z,1.47
2019-05-13T09:07:02.134Z,1.70
2019-05-13T09:09:31.212Z,1.50
2019-05-13T09:11:57.790Z,1.73
2019-05-13T09:14:26.053Z,1.90
2019-05-13T09:16:52.841Z,1.50
2019-05-13T09:19:22.491Z,1.80
2019-05-13T09:21:52.699Z,2.00
2019-05-13T09:24:27.099Z,1.67
2019-05-13T09:26:49.513Z,1.50
2019-05-13T09:29:18.244Z,1.90
2019-05-13T09:31:45.332Z,2.53
2019-05-13T09:34:14.148Z,1.83
2019-05-13T09:36:43.008Z,1.70
2019-05-13T09:39:12.664Z,1.93
2019-05-13T09:41:41.979Z,1.63
2019-05-13T09:44:07.999Z,1.80
2019-05-13T09:46:36.050Z,2.47
2019-05-13T09:49:16.233Z,2.20
2019-05-13T09:51:32.382Z,2.20
2019-05-13T09:54:01.295Z,3.90
2019-05-13T09:56:31.875Z,3.65
2019-05-13T09:59:04.006Z,5.20
2019-05-13T10:01:34.734Z,4.03
2019-05-13T10:04:02.967Z,2.90
2019-05-13T10:06:32.752Z,3.50
2019-05-13T10:09:01.756Z,1.70
2019-05-13T10:11:28.063Z,2.00
2019-05-13T10:13:55.674Z,2.07
2019-05-13T10:16:25.593Z,1.55
2019-05-13T10:18:52.814Z,1.70
2019-05-13T10:21:24.640Z,1.50
2019-05-13T10:23:51.659Z,1.57
2019-05-13T10:26:18.421Z,1.90
2019-05-13T10:28:45.781Z,1.67
2019-05-13T10:31:13.025Z,2.00
2019-05-13T10:33:42.045Z,2.03
2019-05-13T10:36:11.885Z,2.00
2019-05-13T10:38:37.846Z,1.60
2019-05-13T10:41:05.013Z,1.60
2019-05-13T10:43:32.768Z,1.50
2019-05-13T10:46:01.969Z,1.60
2019-05-13T10:48:28.250Z,1.72
2019-05-13T10:50:54.965Z,1.83
2019-05-13T10:53:22.354Z,1.70
2019-05-13T10:55:51.710Z,1.60
2019-05-13T10:58:23.025Z,2.20
2019-05-13T11:00:47.735Z,1.70
2019-05-13T11:03:14.752Z,1.50
2019-05-13T11:05:44.657Z,1.60
2019-05-13T11:08:09.711Z,1.60
2019-05-13T11:10:36.311Z,1.70
2019-05-13T11:13:06.225Z,1.60
2019-05-13T11:15:40.997Z,1.60
2019-05-13T11:18:02.897Z,1.60
2019-05-13T11:20:28.667Z,1.60
2019-05-13T11:22:55.300Z,2.30
2019-05-13T11:25:21.932Z,1.77
2019-05-13T11:27:48.767Z,1.73
2019-05-13T11:30:15.375Z,1.70
2019-05-13T11:32:42.859Z,1.55
2019-05-13T11:35:12.875Z,1.80
2019-05-13T11:37:38.248Z,1.83
2019-05-13T11:40:04.849Z,1.97
2019-05-13T11:42:33.218Z,1.44
2019-05-13T11:44:59.844Z,1.50
2019-05-13T11:47:26.447Z,1.40
2019-05-13T11:49:53.350Z,1.73
2019-05-13T11:52:21.887Z,1.57
2019-05-13T11:54:48.555Z,1.53
2019-05-13T11:57:15.409Z,1.60
2019-05-13T11:59:43.259Z,1.50
2019-05-13T12:02:13.927Z,1.43
2019-05-13T12:04:44.192Z,1.53
2019-05-13T12:07:13.243Z,1.73
2019-05-13T12:09:41.078Z,1.65
2019-05-13T12:12:08.632Z,1.60
2019-05-13T12:14:49.598Z,1.80
2019-05-13T12:17:06.523Z,1.80
2019-05-13T12:19:33.375Z,1.67
2019-05-13T12:22:02.647Z,1.50
2019-05-13T12:24:29.234Z,1.80
2019-05-13T12:26:58.437Z,1.70
2019-05-13T12:29:25.673Z,1.67
2019-05-13T12:31:54.467Z,1.43
2019-05-13T12:34:22.856Z,1.60
2019-05-13T12:36:50.279Z,1.63
2019-05-13T12:39:17.449Z,1.97
2019-05-13T12:41:45.285Z,1.50
2019-05-13T12:44:14.562Z,1.80
2019-05-13T12:46:48.589Z,1.57
2019-05-13T12:49:14.191Z,1.73
2019-05-13T12:51:44.483Z,1.60
2019-05-13T12:54:12.575Z,1.70
2019-05-13T12:56:38.275Z,1.73
2019-05-13T12:59:04.986Z,1.57
2019-05-13T13:01:32.547Z,1.40
2019-05-13T13:04:01.615Z,1.63
2019-05-13T13:06:36.059Z,1.70
2019-05-13T13:08:56.843Z,1.70
2019-05-13T13:11:23.496Z,1.80
2019-05-13T13:14:00.088Z,1.80
2019-05-13T13:16:18.857Z,1.50
2019-05-13T13:18:45.830Z,1.60
2019-05-13T13:21:14.452Z,1.80
2019-05-13T13:23:42.778Z,2.00
2019-05-13T13:26:15.278Z,1.33
2019-05-13T13:28:37.708Z,2.40
2019-05-13T13:31:04.624Z,1.80
2019-05-13T13:33:34.283Z,1.50
2019-05-13T13:36:04.082Z,1.73
2019-05-13T13:38:28.491Z,1.27
2019-05-13T13:40:55.158Z,1.60
2019-05-13T13:43:24.739Z,1.57
2019-05-13T13:46:07.401Z,1.63
2019-05-13T13:48:18.728Z,1.70
2019-05-13T13:50:45.599Z,1.60
2019-05-13T13:53:14.138Z,1.57
2019-05-13T13:55:44.444Z,1.40
2019-05-13T13:58:09.184Z,1.60
2019-05-13T14:00:47.282Z,1.30
2019-05-13T14:03:06.606Z,1.70
2019-05-13T14:05:36.267Z,1.67
2019-05-13T14:08:01.794Z,1.40
2019-05-13T14:10:29.129Z,1.70
2019-05-13T14:12:55.955Z,1.40
2019-05-13T14:15:22.763Z,1.60
2019-05-13T14:20:21.977Z,1.43
2019-05-13T14:22:48.772Z,1.50
2019-05-13T14:25:15.432Z,1.57
2019-05-13T14:27:42.307Z,1.63
2019-05-13T14:30:08.914Z,1.80
2019-05-13T14:32:35.978Z,1.53
2019-05-13T14:35:02.839Z,1.63
2019-05-13T14:37:31.815Z,1.73
2019-05-13T14:39:58.261Z,2.60
2019-05-13T14:42:24.921Z,1.60
2019-05-13T14:44:52.234Z,1.60
2019-05-13T14:47:21.800Z,1.27
2019-05-13T14:49:48.597Z,1.50
2019-05-13T14:52:15.401Z,1.50
2019-05-13T14:54:42.272Z,1.60
2019-05-13T14:57:11.951Z,1.80
2019-05-13T14:59:37.833Z,1.80
2019-05-13T15:02:04.725Z,1.90
2019-05-13T15:04:32.486Z,1.47
2019-05-13T15:06:59.879Z,1.20
2019-05-13T15:09:26.941Z,1.30
2019-05-13T15:11:53.529Z,1.70
2019-05-13T15:14:21.986Z,1.60
2019-05-13T15:17:02.272Z,1.30
2019-05-13T15:19:17.356Z,1.57
2019-05-13T15:21:43.981Z,1.50
2019-05-13T15:24:12.392Z,1.50
2019-05-13T15:26:42.006Z,1.50
2019-05-13T15:29:08.187Z,1.40
2019-05-13T15:31:34.808Z,1.30
2019-05-13T15:34:02.627Z,1.30
2019-05-13T15:36:31.364Z,1.50
2019-05-13T15:38:57.949Z,1.37
2019-05-13T15:41:24.814Z,1.30
2019-05-13T15:43:52.103Z,1.10
2019-05-13T15:46:22.438Z,1.40
2019-05-13T15:48:51.186Z,1.40
2019-05-13T15:51:17.339Z,1.40
2019-05-13T15:53:46.503Z,1.15
2019-05-13T15:56:13.139Z,1.20
2019-05-13T15:58:44.066Z,1.15
2019-05-13T16:01:08.388Z,1.40
2019-05-13T16:03:35.245Z,1.25
2019-05-13T16:06:02.098Z,1.60
2019-05-13T16:08:31.249Z,1.20
2019-05-13T16:10:57.419Z,1.50
2019-05-13T16:13:24.092Z,1.10
2019-05-13T16:15:50.743Z,1.53
2019-05-13T16:18:18.819Z,1.30
2019-05-13T16:20:45.586Z,1.47
2019-05-13T16:23:12.552Z,1.30
2019-05-13T16:25:41.555Z,1.67
2019-05-13T16:28:07.668Z,1.70
2019-05-13T16:30:37.559Z,2.25
2019-05-13T16:33:04.323Z,1.43
2019-05-13T16:35:31.880Z,1.50
2019-05-13T16:37:58.860Z,1.30
2019-05-13T16:40:25.689Z,1.10
2019-05-13T16:42:52.312Z,1.10
2019-05-13T16:45:18.897Z,1.00
2019-05-13T16:47:56.907Z,1.30
2019-05-13T16:50:13.958Z,1.00
2019-05-13T16:52:41.794Z,0.83
2019-05-13T16:55:08.525Z,1.03
2019-05-13T16:57:35.448Z,1.25
2019-05-13T17:00:02.580Z,1.27
2019-05-13T17:02:29.614Z,0.90
2019-05-13T17:04:56.427Z,1.00
2019-05-13T17:07:23.556Z,0.90
2019-05-13T17:09:52.118Z,1.00
2019-05-13T17:12:18.510Z,0.83
2019-05-13T17:14:45.189Z,1.00
2019-05-13T17:17:12.192Z,0.90
2019-05-13T17:19:39.047Z,0.90
2019-05-13T17:22:05.659Z,0.97
2019-05-13T17:24:32.532Z,1.00
2019-05-13T17:27:01.392Z,0.80
2019-05-13T17:29:28.039Z,1.00
2019-05-13T17:31:54.676Z,0.93
2019-05-13T17:34:21.284Z,0.85
2019-05-13T17:36:48.098Z,0.90
2019-05-13T17:39:24.441Z,0.90
2019-05-13T17:41:52.882Z,1.10
2019-05-13T17:46:52.245Z,1.00
2019-05-13T17:59:05.727Z,1.10
2019-05-13T18:01:32.375Z,1.20
2019-05-13T18:03:58.970Z,1.00
2019-05-13T18:06:25.679Z,1.07
2019-05-13T18:21:15.332Z,1.00
2019-05-13T18:23:42.314Z,1.02
2019-05-13T18:26:12.798Z,1.10
2019-05-13T18:49:23.043Z,1.50
2019-05-13T18:56:46.296Z,1.30
2019-05-13T19:06:33.256Z,1.40
2019-05-13T19:09:02.210Z,1.20
2019-05-13T19:11:31.563Z,1.40
2019-05-13T19:13:58.008Z,1.40
2019-05-13T19:16:25.471Z,1.50
2019-05-13T19:18:52.385Z,1.43
2019-05-13T19:21:21.721Z,1.50
2019-05-13T19:23:48.206Z,1.27
2019-05-13T19:26:21.755Z,1.70
2019-05-13T19:28:56.751Z,1.43
2019-05-13T19:31:24.254Z,1.42
2019-05-13T19:33:52.080Z,1.50
2019-05-13T19:36:21.016Z,1.37
2019-05-13T19:41:22.130Z,1.62
2019-05-13T19:43:51.063Z,1.30
2019-05-13T19:46:18.278Z,1.30
2019-05-13T19:48:45.078Z,1.40
2019-05-13T19:51:11.670Z,1.43
2019-05-13T19:53:41.015Z,1.60
2019-05-13T19:56:07.169Z,1.40
2019-05-13T19:58:33.985Z,1.35
2019-05-13T20:01:00.844Z,1.50
2019-05-13T20:03:32.061Z,1.57
2019-05-13T20:06:01.935Z,1.43
2019-05-13T20:08:32.064Z,1.25
2019-05-13T20:11:02.843Z,1.50
2019-05-13T20:18:26.082Z,1.30
2019-05-13T20:20:53.620Z,1.30
2019-05-13T20:33:13.092Z,1.60
2019-05-13T20:35:42.099Z,1.40
2019-05-13T20:38:08.916Z,1.70
2019-05-13T20:40:36.648Z,1.63
2019-05-13T20:50:31.686Z,1.40
2019-05-13T20:52:58.713Z,1.60
2019-05-13T20:55:26.011Z,1.60
2019-05-13T20:57:53.884Z,1.70
2019-05-13T21:00:20.489Z,1.70
2019-05-13T21:02:47.662Z,1.80
2019-05-13T21:10:08.741Z,1.75
2019-05-13T21:12:35.317Z,1.90
2019-05-13T21:17:29.050Z,1.70
2019-05-13T21:24:58.523Z,1.80
2019-05-13T21:29:52.031Z,2.20
2019-05-13T21:39:41.242Z,1.60
2019-05-13T21:47:02.802Z,1.93
2019-05-13T21:49:31.833Z,2.00
2019-05-13T21:54:24.647Z,2.15
2019-05-13T21:56:51.553Z,2.20
2019-05-13T22:01:45.711Z,1.90
2019-05-13T22:23:48.397Z,1.87
2019-05-13T22:33:36.804Z,1.70
2019-05-13T22:43:31.967Z,2.00
2019-05-13T22:58:31.829Z,2.27
2019-05-13T23:01:04.104Z,2.07
2019-05-13T23:03:32.366Z,1.90
2019-05-13T23:06:01.414Z,2.07
2019-05-13T23:08:32.313Z,1.70
2019-05-13T23:11:04.773Z,1.90
2019-05-13T23:13:33.985Z,2.10
2019-05-13T23:16:02.379Z,1.90
2019-05-13T23:18:31.438Z,2.20
2019-05-13T23:21:02.221Z,2.45
2019-05-13T23:23:31.158Z,2.60
2019-05-13T23:26:08.195Z,2.10
2019-05-13T23:28:36.094Z,2.00
2019-05-13T23:31:03.331Z,2.30
2019-05-13T23:33:36.077Z,1.90
2019-05-13T23:36:02.894Z,2.07
2019-05-13T23:38:31.922Z,1.80
2019-05-13T23:41:02.005Z,2.00
2019-05-13T23:43:33.290Z,1.97
2019-05-13T23:46:01.409Z,2.20
2019-05-13T23:48:28.590Z,2.00
2019-05-13T23:50:57.340Z,2.27
2019-05-13T23:53:24.347Z,1.80
2019-05-13T23:55:52.263Z,2.23
2019-05-13T23:58:21.885Z,2.10
